sensor_id;sensor_type;location;lat;lon;timestamp;pressure;altitude;pressure_sealevel;temperature;humidity
21828;BME280;11076;47.942;11.804;2023-07-20T00:02:07;94187.19;;;17.91;83.69
21828;BME280;11076;47.942;11.804;2023-07-20T00:07:27;94196.66;;;17.99;86.13
21828;BME280;11076;47.942;11.804;2023-07-20T00:12:31;94180.19;;;18.11;87.18
21828;BME280;11076;47.942;11.804;2023-07-20T00:17:33;94184.47;;;18.22;86.78
21828;BME280;11076;47.942;11.804;2023-07-20T00:22:35;94188.53;;;18.04;87.72
21828;BME280;11076;47.942;11.804;2023-07-20T00:27:38;94193.69;;;18.05;88.87
21828;BME280;11076;47.942;11.804;2023-07-20T00:32:42;94192.34;;;18.13;89.09
21828;BME280;11076;47.942;11.804;2023-07-20T00:37:44;94193.66;;;18.36;87.93
21828;BME280;11076;47.942;11.804;2023-07-20T00:42:47;94206.66;;;18.39;87.39
21828;BME280;11076;47.942;11.804;2023-07-20T00:47:56;94214.25;;;18.37;87.40
21828;BME280;11076;47.942;11.804;2023-07-20T00:52:59;94211.53;;;18.37;87.08
21828;BME280;11076;47.942;11.804;2023-07-20T00:58:02;94189.38;;;18.40;86.38
21828;BME280;11076;47.942;11.804;2023-07-20T01:03:05;94189.34;;;18.20;87.29
21828;BME280;11076;47.942;11.804;2023-07-20T01:08:13;94204.50;;;18.26;87.62
21828;BME280;11076;47.942;11.804;2023-07-20T01:13:19;94206.94;;;18.27;87.70
21828;BME280;11076;47.942;11.804;2023-07-20T01:18:23;94201.81;;;18.21;88.29
21828;BME280;11076;47.942;11.804;2023-07-20T01:23:40;94206.16;;;18.17;89.30
21828;BME280;11076;47.942;11.804;2023-07-20T01:34:17;94182.34;;;18.08;90.11
21828;BME280;11076;47.942;11.804;2023-07-20T01:39:21;94189.91;;;18.06;90.73
21828;BME280;11076;47.942;11.804;2023-07-20T01:44:24;94175.84;;;18.15;90.63
21828;BME280;11076;47.942;11.804;2023-07-20T01:49:27;94177.19;;;18.02;91.09
21828;BME280;11076;47.942;11.804;2023-07-20T01:54:30;94191.53;;;18.07;91.26
21828;BME280;11076;47.942;11.804;2023-07-20T01:59:32;94181.50;;;18.08;91.24
21828;BME280;11076;47.942;11.804;2023-07-20T02:04:34;94194.78;;;18.09;91.16
21828;BME280;11076;47.942;11.804;2023-07-20T02:09:37;94192.59;;;18.01;91.52
21828;BME280;11076;47.942;11.804;2023-07-20T02:14:42;94203.97;;;18.24;90.63
21828;BME280;11076;47.942;11.804;2023-07-20T02:19:44;94186.09;;;18.18;91.45
21828;BME280;11076;47.942;11.804;2023-07-20T02:24:47;94202.34;;;18.18;91.66
21828;BME280;11076;47.942;11.804;2023-07-20T02:29:50;94206.66;;;18.03;92.91
21828;BME280;11076;47.942;11.804;2023-07-20T02:34:52;94199.34;;;17.88;93.73
21828;BME280;11076;47.942;11.804;2023-07-20T02:39:55;94203.41;;;17.91;93.82
21828;BME280;11076;47.942;11.804;2023-07-20T02:44:57;94196.66;;;18.09;92.98
21828;BME280;11076;47.942;11.804;2023-07-20T02:50:00;94191.00;;;18.11;92.70
21828;BME280;11076;47.942;11.804;2023-07-20T02:55:02;94202.63;;;18.21;92.00
21828;BME280;11076;47.942;11.804;2023-07-20T03:00:05;94198.28;;;18.10;92.79
21828;BME280;11076;47.942;11.804;2023-07-20T03:05:09;94194.50;;;17.96;93.62
21828;BME280;11076;47.942;11.804;2023-07-20T03:10:11;94188.81;;;18.02;93.19
21828;BME280;11076;47.942;11.804;2023-07-20T03:15:14;94216.97;;;18.06;94.14
21828;BME280;11076;47.942;11.804;2023-07-20T03:20:16;94209.91;;;18.26;95.42
21828;BME280;11076;47.942;11.804;2023-07-20T03:25:18;94196.66;;;18.14;95.87
21828;BME280;11076;47.942;11.804;2023-07-20T03:30:21;94212.34;;;17.97;96.07
21828;BME280;11076;47.942;11.804;2023-07-20T03:35:25;94218.25;;;17.73;98.15
21828;BME280;11076;47.942;11.804;2023-07-20T03:40:27;94228.78;;;17.80;99.08
21828;BME280;11076;47.942;11.804;2023-07-20T03:45:30;94262.88;;;17.86;100.00
21828;BME280;11076;47.942;11.804;2023-07-20T03:50:32;94256.06;;;17.78;97.53
21828;BME280;11076;47.942;11.804;2023-07-20T03:55:35;94227.69;;;17.65;95.78
21828;BME280;11076;47.942;11.804;2023-07-20T04:00:38;94246.56;;;17.60;95.23
21828;BME280;11076;47.942;11.804;2023-07-20T04:05:40;94262.75;;;17.45;93.58
21828;BME280;11076;47.942;11.804;2023-07-20T04:10:43;94268.41;;;17.43;92.39
21828;BME280;11076;47.942;11.804;2023-07-20T04:15:46;94269.75;;;17.36;91.67
21828;BME280;11076;47.942;11.804;2023-07-20T04:20:49;94265.41;;;17.35;91.30
21828;BME280;11076;47.942;11.804;2023-07-20T04:25:51;94275.66;;;17.27;90.92
21828;BME280;11076;47.942;11.804;2023-07-20T04:30:54;94276.19;;;17.29;90.87
21828;BME280;11076;47.942;11.804;2023-07-20T04:35:57;94279.91;;;17.18;90.40
21828;BME280;11076;47.942;11.804;2023-07-20T04:41:05;94282.31;;;17.15;90.80
21828;BME280;11076;47.942;11.804;2023-07-20T04:46:12;94286.13;;;17.14;91.53
21828;BME280;11076;47.942;11.804;2023-07-20T04:51:16;94291.78;;;17.12;91.34
21828;BME280;11076;47.942;11.804;2023-07-20T04:56:24;94281.56;;;17.24;91.47
21828;BME280;11076;47.942;11.804;2023-07-20T05:01:29;94293.81;;;17.42;91.26
21828;BME280;11076;47.942;11.804;2023-07-20T05:06:32;94301.50;;;17.13;92.65
21828;BME280;11076;47.942;11.804;2023-07-20T05:11:35;94303.75;;;16.84;94.06
21828;BME280;11076;47.942;11.804;2023-07-20T05:16:37;94304.00;;;16.82;94.01
21828;BME280;11076;47.942;11.804;2023-07-20T05:21:41;94295.41;;;16.85;94.53
21828;BME280;11076;47.942;11.804;2023-07-20T05:26:44;94289.06;;;16.75;94.64
21828;BME280;11076;47.942;11.804;2023-07-20T05:31:46;94292.56;;;16.70;95.43
21828;BME280;11076;47.942;11.804;2023-07-20T05:36:49;94293.16;;;16.77;95.36
21828;BME280;11076;47.942;11.804;2023-07-20T05:41:52;94287.03;;;16.87;95.59
21828;BME280;11076;47.942;11.804;2023-07-20T05:46:54;94286.56;;;17.00;95.61
21828;BME280;11076;47.942;11.804;2023-07-20T05:51:58;94289.81;;;17.02;95.64
21828;BME280;11076;47.942;11.804;2023-07-20T05:57:01;94278.31;;;17.22;95.07
21828;BME280;11076;47.942;11.804;2023-07-20T06:02:04;94295.16;;;17.40;94.20
21828;BME280;11076;47.942;11.804;2023-07-20T06:07:07;94295.63;;;17.26;94.06
21828;BME280;11076;47.942;11.804;2023-07-20T06:12:12;94312.03;;;17.09;95.18
21828;BME280;11076;47.942;11.804;2023-07-20T06:17:15;94307.81;;;16.86;96.17
21828;BME280;11076;47.942;11.804;2023-07-20T06:22:17;94306.84;;;17.03;96.45
21828;BME280;11076;47.942;11.804;2023-07-20T06:27:20;94304.31;;;17.39;95.87
21828;BME280;11076;47.942;11.804;2023-07-20T06:32:22;94301.84;;;17.90;94.76
21828;BME280;11076;47.942;11.804;2023-07-20T06:37:24;94300.75;;;17.86;94.20
21828;BME280;11076;47.942;11.804;2023-07-20T06:42:27;94307.81;;;17.97;94.38
21828;BME280;11076;47.942;11.804;2023-07-20T06:47:49;94304.53;;;17.90;94.42
21828;BME280;11076;47.942;11.804;2023-07-20T06:52:52;94302.38;;;17.92;94.41
21828;BME280;11076;47.942;11.804;2023-07-20T06:57:54;94300.78;;;18.01;93.85
21828;BME280;11076;47.942;11.804;2023-07-20T07:03:00;94295.97;;;18.19;93.11
21828;BME280;11076;47.942;11.804;2023-07-20T07:08:04;94300.59;;;18.49;92.55
21828;BME280;11076;47.942;11.804;2023-07-20T07:13:07;94313.59;;;18.62;90.65
21828;BME280;11076;47.942;11.804;2023-07-20T07:18:09;94313.84;;;18.92;89.46
21828;BME280;11076;47.942;11.804;2023-07-20T07:23:12;94300.28;;;19.07;89.83
21828;BME280;11076;47.942;11.804;2023-07-20T07:28:14;94300.50;;;19.36;88.46
21828;BME280;11076;47.942;11.804;2023-07-20T07:33:17;94301.06;;;19.98;85.67
21828;BME280;11076;47.942;11.804;2023-07-20T07:38:19;94301.78;;;20.59;85.82
21828;BME280;11076;47.942;11.804;2023-07-20T07:43:32;94308.44;;;20.77;83.92
21828;BME280;11076;47.942;11.804;2023-07-20T07:48:35;94300.69;;;22.15;79.44
21828;BME280;11076;47.942;11.804;2023-07-20T07:53:37;94296.34;;;22.14;72.12
21828;BME280;11076;47.942;11.804;2023-07-20T07:58:41;94297.53;;;22.46;70.17
21828;BME280;11076;47.942;11.804;2023-07-20T08:03:43;94293.94;;;22.31;68.45
21828;BME280;11076;47.942;11.804;2023-07-20T08:08:47;94294.03;;;22.78;68.15
21828;BME280;11076;47.942;11.804;2023-07-20T08:13:50;94293.34;;;22.53;66.02
21828;BME280;11076;47.942;11.804;2023-07-20T08:18:52;94296.34;;;22.14;65.83
21828;BME280;11076;47.942;11.804;2023-07-20T08:23:55;94301.53;;;22.53;65.10
21828;BME280;11076;47.942;11.804;2023-07-20T08:28:57;94306.34;;;22.75;65.32
21828;BME280;11076;47.942;11.804;2023-07-20T08:33:59;94304.66;;;22.79;61.27
21828;BME280;11076;47.942;11.804;2023-07-20T08:39:02;94308.50;;;22.78;62.73
21828;BME280;11076;47.942;11.804;2023-07-20T08:44:05;94302.97;;;22.97;60.94
21828;BME280;11076;47.942;11.804;2023-07-20T08:49:10;94304.53;;;23.50;61.79
21828;BME280;11076;47.942;11.804;2023-07-20T08:54:13;94303.22;;;23.34;57.73
21828;BME280;11076;47.942;11.804;2023-07-20T08:59:17;94303.72;;;23.91;56.97
21828;BME280;11076;47.942;11.804;2023-07-20T09:04:20;94304.69;;;24.23;56.98
21828;BME280;11076;47.942;11.804;2023-07-20T09:09:22;94319.97;;;22.75;52.13
21828;BME280;11076;47.942;11.804;2023-07-20T09:14:25;94299.91;;;23.92;53.71
21828;BME280;11076;47.942;11.804;2023-07-20T09:19:27;94300.81;;;24.01;55.27
21828;BME280;11076;47.942;11.804;2023-07-20T09:24:30;94280.03;;;23.17;53.28
21828;BME280;11076;47.942;11.804;2023-07-20T09:29:32;94282.78;;;22.84;53.71
21828;BME280;11076;47.942;11.804;2023-07-20T09:34:35;94279.19;;;22.70;52.01
21828;BME280;11076;47.942;11.804;2023-07-20T09:39:45;94287.19;;;22.80;53.31
21828;BME280;11076;47.942;11.804;2023-07-20T09:44:51;94289.59;;;22.68;55.46
21828;BME280;11076;47.942;11.804;2023-07-20T09:49:58;94286.22;;;22.90;56.04
21828;BME280;11076;47.942;11.804;2023-07-20T09:55:06;94284.66;;;23.03;56.17
21828;BME280;11076;47.942;11.804;2023-07-20T10:00:08;94276.31;;;23.69;54.96
21828;BME280;11076;47.942;11.804;2023-07-20T10:05:19;94268.84;;;24.38;53.00
21828;BME280;11076;47.942;11.804;2023-07-20T10:10:22;94260.81;;;25.32;51.46
21828;BME280;11076;47.942;11.804;2023-07-20T10:15:30;94255.50;;;25.67;48.70
21828;BME280;11076;47.942;11.804;2023-07-20T10:20:39;94254.34;;;25.68;47.61
21828;BME280;11076;47.942;11.804;2023-07-20T10:26:02;94250.63;;;26.13;49.22
21828;BME280;11076;47.942;11.804;2023-07-20T10:31:08;94241.88;;;25.13;47.46
21828;BME280;11076;47.942;11.804;2023-07-20T10:36:11;94249.44;;;24.63;50.93
21828;BME280;11076;47.942;11.804;2023-07-20T10:41:28;94248.75;;;23.56;53.25
21828;BME280;11076;47.942;11.804;2023-07-20T10:46:34;94248.94;;;23.18;53.42
21828;BME280;11076;47.942;11.804;2023-07-20T10:56:48;94244.06;;;23.98;52.57
21828;BME280;11076;47.942;11.804;2023-07-20T11:01:57;94243.28;;;23.98;52.23
21828;BME280;11076;47.942;11.804;2023-07-20T11:07:05;94240.56;;;24.20;51.68
21828;BME280;11076;47.942;11.804;2023-07-20T11:17:13;94219.38;;;26.14;47.33
21828;BME280;11076;47.942;11.804;2023-07-20T11:22:17;94227.69;;;25.83;48.08
21828;BME280;11076;47.942;11.804;2023-07-20T11:27:19;94219.06;;;25.49;46.36
21828;BME280;11076;47.942;11.804;2023-07-20T11:32:24;94217.03;;;25.24;47.09
21828;BME280;11076;47.942;11.804;2023-07-20T11:37:27;94202.28;;;25.42;45.86
21828;BME280;11076;47.942;11.804;2023-07-20T11:42:29;94199.84;;;26.24;45.67
21828;BME280;11076;47.942;11.804;2023-07-20T11:47:40;94187.94;;;26.29;46.58
21828;BME280;11076;47.942;11.804;2023-07-20T11:52:44;94190.19;;;26.35;45.89
21828;BME280;11076;47.942;11.804;2023-07-20T11:58:05;94187.72;;;25.82;46.06
21828;BME280;11076;47.942;11.804;2023-07-20T12:03:09;94183.28;;;27.11;43.66
21828;BME280;11076;47.942;11.804;2023-07-20T12:08:12;94169.91;;;26.19;43.11
21828;BME280;11076;47.942;11.804;2023-07-20T12:13:15;94170.88;;;26.41;44.14
21828;BME280;11076;47.942;11.804;2023-07-20T12:18:17;94173.75;;;26.18;44.39
21828;BME280;11076;47.942;11.804;2023-07-20T12:23:20;94158.63;;;26.29;43.93
21828;BME280;11076;47.942;11.804;2023-07-20T12:28:22;94153.78;;;25.91;43.56
21828;BME280;11076;47.942;11.804;2023-07-20T12:33:25;94152.44;;;25.63;44.95
21828;BME280;11076;47.942;11.804;2023-07-20T12:45:04;94142.06;;;24.93;43.91
21828;BME280;11076;47.942;11.804;2023-07-20T12:50:07;94138.94;;;25.17;44.56
21828;BME280;11076;47.942;11.804;2023-07-20T12:55:09;94139.81;;;25.35;43.04
21828;BME280;11076;47.942;11.804;2023-07-20T13:00:13;94130.03;;;25.43;42.18
21828;BME280;11076;47.942;11.804;2023-07-20T13:05:16;94129.44;;;26.16;42.65
21828;BME280;11076;47.942;11.804;2023-07-20T13:10:19;94125.22;;;26.36;42.05
21828;BME280;11076;47.942;11.804;2023-07-20T13:15:24;94124.59;;;25.78;42.58
21828;BME280;11076;47.942;11.804;2023-07-20T13:20:31;94126.94;;;25.36;44.21
21828;BME280;11076;47.942;11.804;2023-07-20T13:25:34;94128.22;;;25.30;44.19
21828;BME280;11076;47.942;11.804;2023-07-20T13:30:36;94117.34;;;24.67;44.52
21828;BME280;11076;47.942;11.804;2023-07-20T13:35:40;94122.50;;;24.46;43.88
21828;BME280;11076;47.942;11.804;2023-07-20T13:40:46;94121.19;;;24.66;44.16
21828;BME280;11076;47.942;11.804;2023-07-20T13:45:49;94108.31;;;24.98;43.59
21828;BME280;11076;47.942;11.804;2023-07-20T13:50:51;94106.84;;;24.92;43.78
21828;BME280;11076;47.942;11.804;2023-07-20T13:55:58;94104.41;;;25.30;42.76
21828;BME280;11076;47.942;11.804;2023-07-20T14:01:03;94099.63;;;24.96;44.31
21828;BME280;11076;47.942;11.804;2023-07-20T14:06:06;94101.25;;;25.06;43.01
21828;BME280;11076;47.942;11.804;2023-07-20T14:11:11;94091.06;;;24.89;43.98
21828;BME280;11076;47.942;11.804;2023-07-20T14:16:16;94084.94;;;25.23;43.72
21828;BME280;11076;47.942;11.804;2023-07-20T14:21:20;94085.63;;;25.90;42.57
21828;BME280;11076;47.942;11.804;2023-07-20T14:26:23;94077.75;;;26.06;42.34
21828;BME280;11076;47.942;11.804;2023-07-20T14:31:25;94075.13;;;26.35;42.71
21828;BME280;11076;47.942;11.804;2023-07-20T14:36:28;94069.94;;;26.43;43.49
21828;BME280;11076;47.942;11.804;2023-07-20T14:41:30;94079.28;;;26.59;43.10
21828;BME280;11076;47.942;11.804;2023-07-20T14:46:33;94068.41;;;26.07;42.56
21828;BME280;11076;47.942;11.804;2023-07-20T14:51:35;94052.00;;;26.54;42.33
21828;BME280;11076;47.942;11.804;2023-07-20T14:56:39;94052.06;;;27.22;41.45
21828;BME280;11076;47.942;11.804;2023-07-20T15:01:42;94054.38;;;27.62;40.33
21828;BME280;11076;47.942;11.804;2023-07-20T15:06:45;94055.41;;;28.00;38.64
21828;BME280;11076;47.942;11.804;2023-07-20T15:11:48;94052.25;;;28.10;39.31
21828;BME280;11076;47.942;11.804;2023-07-20T15:16:50;94044.34;;;27.66;37.86
21828;BME280;11076;47.942;11.804;2023-07-20T15:21:52;94034.50;;;27.44;39.50
21828;BME280;11076;47.942;11.804;2023-07-20T15:26:56;94038.84;;;26.30;40.34
21828;BME280;11076;47.942;11.804;2023-07-20T15:31:59;94028.78;;;25.95;41.56
21828;BME280;11076;47.942;11.804;2023-07-20T15:37:02;94030.06;;;25.54;40.76
21828;BME280;11076;47.942;11.804;2023-07-20T15:42:06;94021.31;;;26.31;41.20
21828;BME280;11076;47.942;11.804;2023-07-20T15:47:08;94011.41;;;27.15;40.18
21828;BME280;11076;47.942;11.804;2023-07-20T15:52:11;94017.28;;;27.35;39.81
21828;BME280;11076;47.942;11.804;2023-07-20T15:57:14;94017.75;;;27.37;40.01
21828;BME280;11076;47.942;11.804;2023-07-20T16:02:17;94012.31;;;26.69;39.85
21828;BME280;11076;47.942;11.804;2023-07-20T16:07:19;94003.50;;;25.98;40.74
21828;BME280;11076;47.942;11.804;2023-07-20T16:12:22;94004.31;;;25.90;41.15
21828;BME280;11076;47.942;11.804;2023-07-20T16:17:28;94001.13;;;25.45;41.90
21828;BME280;11076;47.942;11.804;2023-07-20T16:22:30;94002.88;;;25.58;41.83
21828;BME280;11076;47.942;11.804;2023-07-20T16:27:33;93998.38;;;25.53;40.08
21828;BME280;11076;47.942;11.804;2023-07-20T16:32:35;93992.88;;;25.79;40.52
21828;BME280;11076;47.942;11.804;2023-07-20T16:37:37;93991.28;;;25.44;40.91
21828;BME280;11076;47.942;11.804;2023-07-20T16:42:40;93983.19;;;25.82;41.36
21828;BME280;11076;47.942;11.804;2023-07-20T16:47:46;93979.69;;;26.37;41.29
21828;BME280;11076;47.942;11.804;2023-07-20T16:52:48;93977.56;;;25.87;42.31
21828;BME280;11076;47.942;11.804;2023-07-20T16:57:51;93982.59;;;25.59;44.39
21828;BME280;11076;47.942;11.804;2023-07-20T17:02:53;93988.22;;;25.45;46.02
21828;BME280;11076;47.942;11.804;2023-07-20T17:07:56;93986.78;;;25.22;47.27
21828;BME280;11076;47.942;11.804;2023-07-20T17:12:58;93979.97;;;25.10;47.64
21828;BME280;11076;47.942;11.804;2023-07-20T17:18:01;93983.00;;;25.00;48.00
21828;BME280;11076;47.942;11.804;2023-07-20T17:23:03;93978.03;;;24.93;48.75
21828;BME280;11076;47.942;11.804;2023-07-20T17:28:06;93972.38;;;24.90;49.16
21828;BME280;11076;47.942;11.804;2023-07-20T17:33:11;93975.50;;;24.57;49.87
21828;BME280;11076;47.942;11.804;2023-07-20T17:38:13;93983.63;;;24.39;50.93
21828;BME280;11076;47.942;11.804;2023-07-20T17:43:19;93977.19;;;24.93;50.75
21828;BME280;11076;47.942;11.804;2023-07-20T17:48:22;93976.00;;;25.51;49.68
21828;BME280;11076;47.942;11.804;2023-07-20T17:53:24;93977.56;;;25.87;48.94
21828;BME280;11076;47.942;11.804;2023-07-20T17:58:28;93977.72;;;25.99;47.88
21828;BME280;11076;47.942;11.804;2023-07-20T18:03:30;93976.44;;;25.79;49.32
21828;BME280;11076;47.942;11.804;2023-07-20T18:08:33;93974.06;;;25.60;50.40
21828;BME280;11076;47.942;11.804;2023-07-20T18:13:36;93972.72;;;25.14;51.45
21828;BME280;11076;47.942;11.804;2023-07-20T18:18:38;93974.72;;;24.25;53.34
21828;BME280;11076;47.942;11.804;2023-07-20T18:23:41;93987.19;;;23.18;55.46
21828;BME280;11076;47.942;11.804;2023-07-20T18:28:43;93979.03;;;22.40;58.08
21828;BME280;11076;47.942;11.804;2023-07-20T18:33:45;93982.63;;;21.75;60.28
21828;BME280;11076;47.942;11.804;2023-07-20T18:38:48;93979.53;;;21.30;62.02
21828;BME280;11076;47.942;11.804;2023-07-20T18:43:50;93976.41;;;21.04;62.89
21828;BME280;11076;47.942;11.804;2023-07-20T18:48:53;93983.16;;;20.88;64.05
21828;BME280;11076;47.942;11.804;2023-07-20T18:53:55;93985.34;;;20.85;64.43
21828;BME280;11076;47.942;11.804;2023-07-20T18:58:57;93986.13;;;20.67;66.42
21828;BME280;11076;47.942;11.804;2023-07-20T19:04:00;93991.16;;;20.55;67.47
21828;BME280;11076;47.942;11.804;2023-07-20T19:09:03;93995.91;;;20.44;67.85
21828;BME280;11076;47.942;11.804;2023-07-20T19:14:06;94003.06;;;20.11;69.86
21828;BME280;11076;47.942;11.804;2023-07-20T19:19:09;94001.22;;;20.06;70.26
21828;BME280;11076;47.942;11.804;2023-07-20T19:24:12;94000.69;;;19.75;71.47
21828;BME280;11076;47.942;11.804;2023-07-20T19:29:14;94016.00;;;19.60;72.59
21828;BME280;11076;47.942;11.804;2023-07-20T19:34:16;94016.03;;;19.55;72.64
21828;BME280;11076;47.942;11.804;2023-07-20T19:39:19;94023.00;;;19.61;73.55
21828;BME280;11076;47.942;11.804;2023-07-20T19:44:22;94029.22;;;19.67;74.22
21828;BME280;11076;47.942;11.804;2023-07-20T19:49:24;94027.91;;;19.59;74.13
21828;BME280;11076;47.942;11.804;2023-07-20T19:54:28;94037.34;;;19.33;75.57
21828;BME280;11076;47.942;11.804;2023-07-20T19:59:32;94040.66;;;19.24;76.52
21828;BME280;11076;47.942;11.804;2023-07-20T20:04:36;94031.50;;;19.15;77.26
21828;BME280;11076;47.942;11.804;2023-07-20T20:09:41;94035.41;;;18.94;78.09
21828;BME280;11076;47.942;11.804;2023-07-20T20:14:44;94040.38;;;18.76;79.17
21828;BME280;11076;47.942;11.804;2023-07-20T20:19:47;94027.38;;;18.73;79.69
21828;BME280;11076;47.942;11.804;2023-07-20T20:24:51;94024.78;;;18.47;80.38
21828;BME280;11076;47.942;11.804;2023-07-20T20:29:54;94026.16;;;18.45;80.91
21828;BME280;11076;47.942;11.804;2023-07-20T20:34:58;94023.16;;;18.46;80.76
21828;BME280;11076;47.942;11.804;2023-07-20T20:40:01;94015.59;;;18.43;80.27
21828;BME280;11076;47.942;11.804;2023-07-20T20:45:04;94013.50;;;18.20;80.91
21828;BME280;11076;47.942;11.804;2023-07-20T20:50:07;94011.06;;;18.23;81.25
21828;BME280;11076;47.942;11.804;2023-07-20T20:55:11;94010.00;;;18.14;81.32
21828;BME280;11076;47.942;11.804;2023-07-20T21:00:14;94011.69;;;17.95;82.18
21828;BME280;11076;47.942;11.804;2023-07-20T21:05:16;94005.47;;;17.79;82.62
21828;BME280;11076;47.942;11.804;2023-07-20T21:10:19;94010.63;;;17.85;82.38
21828;BME280;11076;47.942;11.804;2023-07-20T21:15:21;94001.97;;;17.83;82.48
21828;BME280;11076;47.942;11.804;2023-07-20T21:20:24;94004.38;;;17.80;82.44
21828;BME280;11076;47.942;11.804;2023-07-20T21:25:26;94001.69;;;17.75;82.67
21828;BME280;11076;47.942;11.804;2023-07-20T21:30:29;94013.06;;;17.41;84.19
21828;BME280;11076;47.942;11.804;2023-07-20T21:35:31;94021.19;;;17.41;84.47
21828;BME280;11076;47.942;11.804;2023-07-20T21:40:37;94014.69;;;17.57;83.56
21828;BME280;11076;47.942;11.804;2023-07-20T21:45:40;94015.47;;;17.53;83.74
21828;BME280;11076;47.942;11.804;2023-07-20T21:50:50;94005.22;;;17.34;84.32
21828;BME280;11076;47.942;11.804;2023-07-20T21:55:53;94001.19;;;17.21;85.28
21828;BME280;11076;47.942;11.804;2023-07-20T22:00:57;93992.53;;;17.09;86.14
21828;BME280;11076;47.942;11.804;2023-07-20T22:06:02;94008.19;;;17.07;86.77
21828;BME280;11076;47.942;11.804;2023-07-20T22:11:08;93998.97;;;17.03;87.13
21828;BME280;11076;47.942;11.804;2023-07-20T22:16:10;94002.78;;;17.02;87.22
21828;BME280;11076;47.942;11.804;2023-07-20T22:21:13;93995.25;;;17.19;86.57
21828;BME280;11076;47.942;11.804;2023-07-20T22:26:16;93994.13;;;17.10;87.13
21828;BME280;11076;47.942;11.804;2023-07-20T22:31:19;93985.50;;;17.08;87.68
21828;BME280;11076;47.942;11.804;2023-07-20T22:36:22;93984.41;;;17.04;88.05
21828;BME280;11076;47.942;11.804;2023-07-20T22:41:24;93984.41;;;16.83;88.43
21828;BME280;11076;47.942;11.804;2023-07-20T22:46:27;93980.06;;;16.82;88.90
21828;BME280;11076;47.942;11.804;2023-07-20T22:51:30;93989.19;;;16.76;89.17
21828;BME280;11076;47.942;11.804;2023-07-20T22:56:32;93984.06;;;16.69;89.63
21828;BME280;11076;47.942;11.804;2023-07-20T23:01:35;93990.03;;;16.87;88.86
21828;BME280;11076;47.942;11.804;2023-07-20T23:06:38;93998.91;;;16.72;89.62
21828;BME280;11076;47.942;11.804;2023-07-20T23:11:40;93981.31;;;16.54;91.51
21828;BME280;11076;47.942;11.804;2023-07-20T23:16:43;93974.56;;;16.46;92.02
21828;BME280;11076;47.942;11.804;2023-07-20T23:21:46;93968.34;;;16.46;92.16
21828;BME280;11076;47.942;11.804;2023-07-20T23:26:48;93960.00;;;16.47;91.97
21828;BME280;11076;47.942;11.804;2023-07-20T23:31:50;93959.19;;;16.57;91.58
21828;BME280;11076;47.942;11.804;2023-07-20T23:36:53;93940.81;;;16.49;91.99
21828;BME280;11076;47.942;11.804;2023-07-20T23:41:56;93939.22;;;16.48;93.18
21828;BME280;11076;47.942;11.804;2023-07-20T23:47:01;93937.34;;;16.43;93.38
21828;BME280;11076;47.942;11.804;2023-07-20T23:52:04;93923.28;;;16.36;93.87
21828;BME280;11076;47.942;11.804;2023-07-20T23:57:07;93920.03;;;16.39;94.20
